Pagrindinis puslapis
METAR-TAF:

METAR-TAF

Oro uostai :

Kernsas, Australija

platuma: 16-53S, ilguma: 145-45E, Aukštis: 3 m

Dabartinis oras

Ataskaita buvo paskelbta 36 minutes, ne 08:30 UTC
Vėjas 6 kt iš Pietų
Temperatūra 23°C
Drėgmė 73%
Slėgis 1016 hPa
Matomumas 10 km arba daugiau

METAR: YBCS 220830Z AUTO 17006KT 9999 // NCD 23/18 Q1016 RF00.0/000.0

Laikas: 19:06 (09:06 UTC)

Prognozė

Ataskaita buvo paskelbta 3 valandos ir 37 minutes, ne 05:29 UTC
Prognozė galioja nuo 22 metu 06 UTC su 23 metu 06 UTC
Vėjas 12 kt iš Pietų/Pietryčių
Matomumas 10 km arba daugiau
Mažai debesys ne aukštis 2500 ft
Nuo 22 metu 0900 UTC
Vėjas 8 kt iš Pietų
Matomumas 10 km arba daugiau
Išsisklaidę debesys ne aukštis 2500 ft
Nuo 23 metu 0100 UTC
Vėjas 10 kt iš Pietryčių
Matomumas 10 km arba daugiau
Išsisklaidę debesys ne aukštis 3000 ft

TAF: YBCS 220529Z 2206/2306 15012KT 9999 FEW025 FM220900 17008KT 9999 SCT025 FM230100 14010KT 9999 SCT030

Orai ataskaitas ir orų prognozės (METAR, TAF).

turimą stotys yra geltonos ir raudonos taškus žemėlapyje.

Perkelti pele per norėdami pamatyti stoties vardą.

Tada spustelėkite, norėdami matyti oro stebėjimo ir prognozės.

Norėdami pakeisti žemėlapį: spustelėkite ant žalios mygtukų su juodo kryžiaus žemyn,; žalią mygtuką su brūkšneliu, jei norite nutolinti; arba žalių rodyklių gretimoms žemėlapius.


METAR-TAF: